Time;durP1;ratioP1;P1;durP2;ratioP2;P2;SDS_P1;SDS_P2;PMS_P1;PMS_P2;Temp;Humidity;BMP_temperature;BMP_pressure;BME280_temperature;BME280_humidity;BME280_pressure;Samples;Min_cycle;Max_cycle;Signal;HPM_P1;HPM_P2
2021/12/27 00:00:22;;;;;;;9.87;8.73;;;6.00;99.90;;;;;;5014994;28;20175;-89
2021/12/27 00:02:51;;;;;;;10.53;9.50;;;6.00;99.90;;;;;;5014812;28;20181;-89
2021/12/27 00:05:17;;;;;;;10.70;9.60;;;6.00;99.90;;;;;;5014770;28;20645;-89
2021/12/27 00:07:47;;;;;;;10.70;9.60;;;6.00;99.90;;;;;;5013830;28;20181;-89
2021/12/27 00:10:13;;;;;;;10.63;9.40;;;6.00;99.90;;;;;;5014894;28;20176;-90
2021/12/27 00:12:40;;;;;;;10.73;9.63;;;6.00;99.90;;;;;;5014521;28;20199;-89
2021/12/27 00:15:06;;;;;;;9.40;8.50;;;5.90;99.90;;;;;;5014084;28;20190;-89
2021/12/27 00:17:32;;;;;;;10.87;9.50;;;5.90;99.90;;;;;;5014674;28;20182;-89
2021/12/27 00:19:58;;;;;;;12.93;11.07;;;5.90;99.90;;;;;;5014378;28;20189;-89
2021/12/27 00:22:25;;;;;;;13.30;11.53;;;5.90;99.90;;;;;;5014361;28;20264;-89
2021/12/27 00:24:51;;;;;;;11.10;9.90;;;5.90;99.90;;;;;;5014569;28;20212;-89
2021/12/27 00:27:18;;;;;;;12.30;10.60;;;5.80;99.90;;;;;;5014404;28;20261;-89
2021/12/27 00:29:45;;;;;;;10.47;9.37;;;5.80;99.90;;;;;;5013837;28;20198;-89
2021/12/27 00:32:11;;;;;;;11.30;9.87;;;5.80;99.90;;;;;;5013977;28;20206;-89
2021/12/27 00:34:38;;;;;;;10.60;9.43;;;5.80;99.90;;;;;;5013849;28;20207;-89
2021/12/27 00:37:05;;;;;;;11.60;9.73;;;5.90;99.90;;;;;;5014096;28;20188;-89
2021/12/27 00:39:32;;;;;;;13.60;10.40;;;5.80;99.90;;;;;;5014193;28;20272;-89
2021/12/27 00:41:58;;;;;;;11.53;9.87;;;5.80;99.90;;;;;;5014206;28;20201;-89
2021/12/27 00:44:24;;;;;;;12.47;10.10;;;5.80;99.90;;;;;;5013817;28;20197;-89
2021/12/27 00:46:50;;;;;;;13.10;10.87;;;5.80;99.90;;;;;;5013959;28;20248;-89
2021/12/27 00:49:16;;;;;;;12.37;9.97;;;5.80;99.90;;;;;;5013885;28;20181;-89
2021/12/27 00:51:42;;;;;;;10.93;9.63;;;5.80;99.90;;;;;;5013952;28;20209;-89
2021/12/27 00:54:08;;;;;;;10.83;9.43;;;5.70;99.90;;;;;;5013937;28;20205;-89
2021/12/27 00:56:34;;;;;;;12.37;10.20;;;5.70;99.90;;;;;;5013887;28;20192;-89
2021/12/27 00:59:00;;;;;;;12.37;10.47;;;5.70;99.90;;;;;;5013704;28;20188;-89
2021/12/27 01:01:26;;;;;;;11.53;9.53;;;5.60;99.90;;;;;;5013865;28;20200;-89
2021/12/27 01:03:52;;;;;;;11.43;9.03;;;5.60;99.90;;;;;;5013835;28;20214;-89
2021/12/27 01:06:18;;;;;;;10.37;8.57;;;5.60;99.90;;;;;;5013483;28;20186;-89
2021/12/27 01:08:44;;;;;;;11.23;9.57;;;5.50;99.90;;;;;;5013714;28;20243;-89
2021/12/27 01:11:25;;;;;;;10.50;8.73;;;5.60;99.90;;;;;;5013673;28;20199;-89
2021/12/27 01:14:26;;;;;;;11.23;8.33;;;5.60;99.90;;;;;;5008008;28;20222;-88
2021/12/27 01:16:45;;;;;;;11.23;8.17;;;5.50;99.90;;;;;;5009105;28;20180;-89
2021/12/27 01:19:12;;;;;;;11.87;9.03;;;5.60;99.90;;;;;;4994142;28;20650;-89
2021/12/27 01:21:37;;;;;;;12.00;9.20;;;5.50;99.90;;;;;;4994125;28;20207;-89
2021/12/27 01:24:04;;;;;;;12.07;9.43;;;5.50;99.90;;;;;;4993994;28;20189;-89
2021/12/27 01:26:31;;;;;;;11.13;8.90;;;5.50;99.90;;;;;;4993949;28;20184;-89
2021/12/27 01:28:59;;;;;;;10.70;8.43;;;5.50;99.90;;;;;;4993899;28;20217;-89
2021/12/27 01:31:25;;;;;;;10.93;8.33;;;5.60;99.90;;;;;;4993800;28;20201;-89
2021/12/27 01:33:51;;;;;;;10.30;8.47;;;5.50;99.90;;;;;;5003191;28;20215;-89
2021/12/27 01:36:17;;;;;;;10.43;8.70;;;5.50;99.90;;;;;;5012406;28;20250;-89
2021/12/27 01:38:44;;;;;;;12.87;8.50;;;5.50;99.90;;;;;;5013409;28;20230;-89
2021/12/27 01:41:14;;;;;;;11.87;8.37;;;5.40;99.90;;;;;;5013384;28;20670;-89
2021/12/27 01:43:41;;;;;;;10.00;7.40;;;5.40;99.90;;;;;;5034012;28;20231;-89
2021/12/27 01:46:17;;;;;;;9.23;7.63;;;5.30;99.90;;;;;;5017327;28;20188;-89
2021/12/27 01:48:48;;;;;;;9.70;7.27;;;5.30;99.90;;;;;;5017389;28;20217;-89
2021/12/27 01:51:16;;;;;;;8.73;7.33;;;5.30;99.90;;;;;;5017416;28;20216;-89
2021/12/27 01:53:45;;;;;;;10.40;8.17;;;5.40;99.90;;;;;;5017015;28;20210;-89
2021/12/27 01:56:13;;;;;;;11.10;8.13;;;5.40;99.90;;;;;;5016978;28;20182;-89
2021/12/27 01:58:40;;;;;;;10.73;8.10;;;5.40;99.90;;;;;;5017130;28;20183;-89
2021/12/27 02:01:08;;;;;;;10.97;8.90;;;5.40;99.90;;;;;;5017236;28;20199;-89
2021/12/27 02:03:35;;;;;;;11.23;9.17;;;5.40;99.90;;;;;;5017160;28;20184;-90
2021/12/27 02:06:01;;;;;;;14.23;9.40;;;5.40;99.90;;;;;;5016822;28;20200;-89
2021/12/27 02:08:28;;;;;;;12.47;8.37;;;5.50;99.90;;;;;;5016718;28;20337;-90
2021/12/27 02:10:54;;;;;;;13.50;9.67;;;5.50;99.90;;;;;;5016770;28;20218;-89
2021/12/27 02:13:20;;;;;;;13.60;9.20;;;5.50;99.90;;;;;;5016889;28;20260;-89
2021/12/27 02:15:47;;;;;;;13.50;8.47;;;5.50;99.90;;;;;;5016901;28;20226;-89
2021/12/27 02:18:13;;;;;;;12.67;7.90;;;5.50;99.90;;;;;;5016744;28;20189;-89
2021/12/27 02:20:42;;;;;;;12.70;8.47;;;5.50;99.90;;;;;;5016632;28;20306;-89
2021/12/27 02:23:15;;;;;;;10.73;8.00;;;5.40;99.90;;;;;;5016842;28;20187;-89
2021/12/27 02:25:43;;;;;;;9.67;7.47;;;5.40;99.90;;;;;;5016522;28;20182;-89
2021/12/27 02:28:10;;;;;;;9.97;7.30;;;5.40;99.90;;;;;;5016752;28;20186;-89
2021/12/27 02:30:37;;;;;;;8.27;7.07;;;5.40;99.90;;;;;;5016579;28;20288;-89
2021/12/27 02:33:06;;;;;;;8.87;7.33;;;5.30;99.90;;;;;;5016598;28;20274;-89
2021/12/27 02:35:44;;;;;;;8.67;7.17;;;5.30;99.90;;;;;;5016099;28;20266;-89
2021/12/27 02:38:13;;;;;;;8.23;6.80;;;5.30;99.90;;;;;;5016371;28;20181;-89
2021/12/27 02:40:41;;;;;;;7.43;6.27;;;5.30;99.90;;;;;;5016414;28;20212;-89
2021/12/27 02:43:11;;;;;;;9.23;7.10;;;5.30;99.90;;;;;;5016455;28;20181;-89
2021/12/27 02:45:42;;;;;;;9.17;6.67;;;5.30;99.90;;;;;;5016393;28;20212;-89
2021/12/27 02:48:10;;;;;;;10.40;7.80;;;5.20;99.90;;;;;;5016780;28;20170;-89
2021/12/27 02:50:38;;;;;;;10.20;7.63;;;5.20;99.90;;;;;;5016524;28;20203;-89
2021/12/27 02:53:05;;;;;;;8.37;6.93;;;5.20;99.90;;;;;;5016306;28;20220;-89
2021/12/27 02:55:31;;;;;;;10.40;7.60;;;5.20;99.90;;;;;;5016231;28;20192;-89
2021/12/27 02:57:57;;;;;;;9.60;6.57;;;5.20;99.90;;;;;;5016692;28;20265;-89
2021/12/27 03:00:30;;;;;;;11.30;7.37;;;5.30;99.90;;;;;;5016521;28;20183;-89
2021/12/27 03:02:57;;;;;;;9.67;7.07;;;5.30;99.90;;;;;;5017268;28;20177;-89
2021/12/27 03:05:25;;;;;;;10.03;7.17;;;5.30;99.90;;;;;;5016360;28;20194;-90
2021/12/27 03:07:52;;;;;;;9.97;7.17;;;5.30;99.90;;;;;;5016110;28;20213;-89
2021/12/27 03:10:22;;;;;;;10.10;7.27;;;5.40;99.90;;;;;;5015933;28;20188;-89
2021/12/27 03:12:49;;;;;;;11.47;7.00;;;5.40;99.90;;;;;;5015784;28;20180;-89
2021/12/27 03:15:17;;;;;;;10.03;7.07;;;5.40;99.90;;;;;;5015845;28;20193;-89
2021/12/27 03:17:45;;;;;;;8.87;6.93;;;5.50;99.90;;;;;;5032316;28;20693;-89
2021/12/27 03:20:12;;;;;;;12.13;7.23;;;5.40;99.90;;;;;;5015831;28;20184;-89
2021/12/27 03:22:40;;;;;;;8.50;7.07;;;5.40;99.90;;;;;;5015619;28;20197;-89
2021/12/27 03:25:11;;;;;;;8.47;6.60;;;5.40;99.90;;;;;;5015454;28;20189;-89
2021/12/27 03:27:37;;;;;;;8.83;7.07;;;5.50;99.90;;;;;;5015648;28;20218;-89
2021/12/27 03:30:07;;;;;;;8.37;6.80;;;5.50;99.90;;;;;;5015396;28;20189;-89
2021/12/27 03:32:35;;;;;;;8.50;6.70;;;5.50;99.90;;;;;;5015279;28;20249;-89
2021/12/27 03:35:08;;;;;;;9.30;6.57;;;5.40;99.90;;;;;;5015448;28;20208;-89
2021/12/27 03:37:36;;;;;;;9.30;6.80;;;5.50;99.90;;;;;;5015407;28;20215;-89
2021/12/27 03:40:05;;;;;;;7.30;6.07;;;5.50;99.90;;;;;;5015085;28;20276;-89
2021/12/27 03:42:31;;;;;;;7.97;7.13;;;5.50;99.90;;;;;;5015102;28;20205;-89
2021/12/27 03:44:57;;;;;;;8.33;6.67;;;5.40;99.90;;;;;;5000631;28;20194;-89
2021/12/27 03:47:23;;;;;;;8.37;6.53;;;5.40;99.90;;;;;;4995549;28;20183;-89
2021/12/27 03:49:49;;;;;;;9.10;7.03;;;5.40;99.90;;;;;;4995320;28;20599;-89
2021/12/27 03:52:15;;;;;;;7.93;6.37;;;5.40;99.90;;;;;;4995235;28;20209;-89
2021/12/27 03:54:41;;;;;;;7.77;6.27;;;5.30;99.90;;;;;;4995037;28;20206;-89
2021/12/27 03:57:07;;;;;;;8.93;6.83;;;5.30;99.90;;;;;;4995542;28;20231;-89
2021/12/27 04:02:12;;;;;;;8.60;6.37;;;5.30;99.90;;;;;;5011804;28;20228;-89
2021/12/27 04:04:38;;;;;;;7.13;6.27;;;5.30;99.90;;;;;;4995062;28;20226;-89
2021/12/27 04:07:07;;;;;;;8.20;7.03;;;5.30;99.90;;;;;;4994970;28;20224;-89
2021/12/27 04:09:34;;;;;;;8.73;6.60;;;5.30;99.90;;;;;;4994959;28;20256;-89
2021/12/27 04:12:00;;;;;;;17.57;13.67;;;5.10;99.90;;;;;;4995264;28;20252;-89
2021/12/27 04:14:26;;;;;;;11.03;9.43;;;5.10;99.90;;;;;;5005493;28;20216;-89
2021/12/27 04:16:53;;;;;;;10.00;8.03;;;5.00;99.90;;;;;;5014605;28;20267;-89
2021/12/27 04:19:19;;;;;;;9.63;7.47;;;5.00;99.90;;;;;;5014410;28;20549;-89
2021/12/27 04:21:45;;;;;;;13.67;8.27;;;5.00;99.90;;;;;;5014237;28;20203;-89
2021/12/27 04:24:11;;;;;;;11.10;8.27;;;5.00;99.90;;;;;;5030990;28;20253;-89
2021/12/27 04:26:37;;;;;;;12.90;8.60;;;5.00;99.90;;;;;;5014215;28;20187;-89
2021/12/27 04:29:04;;;;;;;14.00;9.10;;;4.90;99.90;;;;;;5014561;28;20218;-89
2021/12/27 04:31:30;;;;;;;11.73;8.63;;;4.90;99.90;;;;;;5014256;28;20310;-89
2021/12/27 04:33:56;;;;;;;13.17;9.53;;;4.90;99.90;;;;;;5014247;28;20669;-89
2021/12/27 04:36:22;;;;;;;15.17;9.63;;;4.90;99.90;;;;;;5013879;28;20184;-89
2021/12/27 04:38:48;;;;;;;12.73;8.50;;;4.90;99.90;;;;;;5014081;28;20572;-89
2021/12/27 04:41:18;;;;;;;10.43;8.23;;;4.90;99.90;;;;;;5013955;28;20207;-89
2021/12/27 04:43:44;;;;;;;9.37;7.37;;;4.90;99.90;;;;;;5008950;28;20210;-89
2021/12/27 04:46:10;;;;;;;9.47;7.43;;;4.90;99.90;;;;;;4996601;28;20221;-89
2021/12/27 04:48:36;;;;;;;10.23;8.37;;;4.90;99.90;;;;;;5013859;28;20183;-88
2021/12/27 04:51:02;;;;;;;9.13;7.70;;;5.00;99.90;;;;;;5014097;28;20206;-89
2021/12/27 04:53:28;;;;;;;9.67;7.83;;;4.90;99.90;;;;;;5011183;28;20199;-89
2021/12/27 04:55:54;;;;;;;10.37;8.20;;;5.00;99.90;;;;;;5003971;28;20186;-82
2021/12/27 04:58:22;;;;;;;10.37;8.30;;;5.00;99.90;;;;;;5004029;28;20242;-89
2021/12/27 05:00:49;;;;;;;12.30;9.13;;;5.00;99.90;;;;;;5016799;28;20235;-89
2021/12/27 05:03:15;;;;;;;11.30;8.87;;;5.00;99.90;;;;;;4994556;28;20654;-89
2021/12/27 05:05:44;;;;;;;12.47;8.77;;;5.10;99.90;;;;;;4993530;28;20208;-89
2021/12/27 05:08:11;;;;;;;13.20;9.70;;;5.10;99.90;;;;;;4992590;28;20189;-90
2021/12/27 05:10:38;;;;;;;12.10;8.80;;;5.10;99.90;;;;;;4994100;28;20180;-89
2021/12/27 05:13:04;;;;;;;12.30;8.83;;;5.10;99.90;;;;;;4993785;28;20216;-89
2021/12/27 05:15:31;;;;;;;10.87;8.40;;;5.20;99.90;;;;;;5012592;28;20185;-89
2021/12/27 05:17:57;;;;;;;8.73;6.97;;;5.10;99.90;;;;;;5012429;28;20234;-89
2021/12/27 05:20:23;;;;;;;8.07;7.00;;;5.20;99.90;;;;;;5013333;28;20189;-89
2021/12/27 05:22:49;;;;;;;9.80;7.50;;;5.10;99.90;;;;;;5013695;28;20245;-89
2021/12/27 05:25:16;;;;;;;8.83;7.00;;;5.10;99.90;;;;;;5013293;28;20184;-89
2021/12/27 05:27:43;;;;;;;9.87;7.53;;;5.10;99.90;;;;;;5013588;28;20185;-89
2021/12/27 05:30:11;;;;;;;8.20;6.70;;;5.00;99.90;;;;;;5013612;28;20228;-89
2021/12/27 05:32:38;;;;;;;8.80;7.00;;;4.90;99.90;;;;;;5013252;28;20295;-89
2021/12/27 05:35:05;;;;;;;9.27;6.97;;;4.90;99.90;;;;;;5013650;28;20213;-89
2021/12/27 05:37:31;;;;;;;8.37;7.10;;;4.90;99.90;;;;;;5012550;28;20187;-89
2021/12/27 05:40:04;;;;;;;22.17;8.47;;;4.80;99.90;;;;;;5013576;28;20184;-89
2021/12/27 05:42:33;;;;;;;37.27;8.30;;;4.80;99.90;;;;;;5013425;28;20198;-89
2021/12/27 05:45:00;;;;;;;15.10;7.07;;;4.80;99.90;;;;;;5013407;28;20188;-89
2021/12/27 05:47:26;;;;;;;11.27;6.60;;;4.80;99.90;;;;;;5013478;28;20273;-89
2021/12/27 05:49:52;;;;;;;15.93;6.70;;;4.70;99.90;;;;;;5013607;28;20273;-89
2021/12/27 05:52:18;;;;;;;8.20;6.77;;;4.60;99.90;;;;;;5013456;28;20198;-89
2021/12/27 05:54:44;;;;;;;31.87;9.17;;;4.60;99.90;;;;;;5013369;28;20207;-89
2021/12/27 05:57:10;;;;;;;10.03;7.40;;;4.50;99.90;;;;;;5030240;28;20175;-89
2021/12/27 05:59:36;;;;;;;53.23;11.87;;;4.50;99.90;;;;;;5013448;28;20174;-89
2021/12/27 06:02:02;;;;;;;16.40;9.57;;;4.50;99.90;;;;;;5013467;28;20198;-89
2021/12/27 06:04:28;;;;;;;32.87;9.20;;;4.40;99.90;;;;;;5013475;28;20269;-89
2021/12/27 06:06:54;;;;;;;40.37;7.23;;;4.40;99.90;;;;;;5013373;28;20274;-89
2021/12/27 06:09:20;;;;;;;12.93;6.50;;;4.30;99.90;;;;;;5013465;28;20186;-89
2021/12/27 06:11:46;;;;;;;7.47;6.40;;;4.30;99.90;;;;;;5013603;28;20677;-89
2021/12/27 06:14:12;;;;;;;32.43;6.40;;;4.30;99.90;;;;;;5013149;28;20218;-89
2021/12/27 06:16:39;;;;;;;9.73;5.10;;;4.20;99.90;;;;;;5013857;28;20181;-90
2021/12/27 06:19:05;;;;;;;10.90;5.60;;;4.10;99.90;;;;;;5013661;28;20183;-89
2021/12/27 06:21:33;;;;;;;79.57;11.30;;;4.10;99.90;;;;;;5014001;28;20208;-90
2021/12/27 06:23:59;;;;;;;36.90;8.80;;;4.00;99.90;;;;;;5014227;28;20185;-89
2021/12/27 06:26:25;;;;;;;10.20;7.97;;;4.00;99.90;;;;;;5013925;28;20192;-89
2021/12/27 06:28:51;;;;;;;10.50;7.03;;;4.00;99.90;;;;;;5014488;28;20182;-89
2021/12/27 06:31:18;;;;;;;35.83;7.90;;;4.00;99.90;;;;;;5016493;28;20206;-89
2021/12/27 06:33:43;;;;;;;22.30;7.40;;;4.00;99.90;;;;;;5016233;28;20286;-89
2021/12/27 06:36:09;;;;;;;12.83;6.20;;;4.00;99.90;;;;;;5012941;28;20228;-89
2021/12/27 06:38:35;;;;;;;27.13;6.40;;;4.00;99.90;;;;;;5005809;28;20186;-89
2021/12/27 06:41:04;;;;;;;45.87;10.47;;;3.90;99.90;;;;;;5006244;28;20201;-89
2021/12/27 06:43:30;;;;;;;55.97;12.17;;;3.80;99.90;;;;;;4993334;28;20186;-89
2021/12/27 06:46:01;;;;;;;8.20;6.90;;;3.70;99.90;;;;;;5027866;28;20180;-89
2021/12/27 06:48:28;;;;;;;32.90;9.10;;;3.70;99.90;;;;;;5029077;28;20186;-89
2021/12/27 06:50:55;;;;;;;14.13;6.73;;;3.70;99.90;;;;;;5023463;28;20203;-89
2021/12/27 06:53:21;;;;;;;8.00;6.80;;;3.80;99.90;;;;;;5007001;28;20199;-89
2021/12/27 06:55:47;;;;;;;15.93;8.27;;;3.80;99.90;;;;;;5004678;28;20172;-89
2021/12/27 06:58:14;;;;;;;32.87;8.40;;;3.80;99.90;;;;;;5008707;28;20190;-89
2021/12/27 07:00:41;;;;;;;7.80;6.60;;;3.80;99.90;;;;;;5006602;28;20203;-89
2021/12/27 07:03:08;;;;;;;29.47;8.73;;;3.80;99.90;;;;;;5007993;28;20222;-89
2021/12/27 07:05:35;;;;;;;8.97;8.07;;;3.80;99.90;;;;;;5022054;28;20227;-89
2021/12/27 07:08:01;;;;;;;9.97;6.53;;;3.80;99.90;;;;;;5007758;28;20175;-89
2021/12/27 07:10:27;;;;;;;7.73;6.37;;;3.80;99.90;;;;;;5004245;28;20187;-89
2021/12/27 07:12:53;;;;;;;9.87;6.83;;;3.80;99.90;;;;;;5005633;28;20210;-89
2021/12/27 07:15:19;;;;;;;39.73;7.17;;;3.70;99.90;;;;;;5001157;28;20787;-89
2021/12/27 07:17:45;;;;;;;13.10;6.30;;;3.70;99.90;;;;;;4996218;28;20211;-89
2021/12/27 07:20:36;;;;;;;16.60;7.87;;;3.70;99.90;;;;;;4997246;28;20183;-89
2021/12/27 07:23:04;;;;;;;21.93;6.93;;;3.80;99.90;;;;;;4997840;28;20178;-89
2021/12/27 07:25:30;;;;;;;38.10;6.60;;;3.80;99.90;;;;;;4997279;28;20180;-89
2021/12/27 07:27:56;;;;;;;6.10;5.50;;;3.80;99.90;;;;;;4998220;28;20186;-89
2021/12/27 07:30:22;;;;;;;6.00;5.03;;;3.80;99.90;;;;;;4997867;28;20184;-89
2021/12/27 07:32:48;;;;;;;5.40;4.80;;;3.70;99.90;;;;;;4997978;28;20191;-89
2021/12/27 07:35:14;;;;;;;12.13;5.97;;;3.70;99.90;;;;;;4997240;28;20211;-89
2021/12/27 07:37:41;;;;;;;31.63;5.83;;;3.70;99.90;;;;;;4997476;28;20171;-89
2021/12/27 07:40:08;;;;;;;13.10;6.57;;;3.60;99.90;;;;;;4998948;28;20183;-89
2021/12/27 07:42:34;;;;;;;28.27;6.20;;;3.50;99.90;;;;;;5001875;28;20284;-89
2021/12/27 07:45:01;;;;;;;7.80;5.10;;;3.60;99.90;;;;;;5006343;28;20319;-89
2021/12/27 07:47:27;;;;;;;11.10;5.70;;;3.60;99.90;;;;;;5016576;28;20270;-89
2021/12/27 07:49:53;;;;;;;17.43;5.50;;;3.60;99.90;;;;;;5012538;28;20263;-89
2021/12/27 07:52:20;;;;;;;10.20;5.03;;;3.70;99.90;;;;;;5019927;28;20206;-89
2021/12/27 07:54:46;;;;;;;14.30;5.57;;;3.60;99.90;;;;;;5012733;28;20697;-91
2021/12/27 07:57:13;;;;;;;7.07;6.37;;;3.60;99.90;;;;;;5033592;28;20182;-91
2021/12/27 07:59:53;;;;;;;10.23;5.63;;;3.60;99.90;;;;;;5017368;28;20183;-91
2021/12/27 08:02:20;;;;;;;8.83;4.97;;;3.60;99.90;;;;;;5016405;28;20205;-91
2021/12/27 08:04:46;;;;;;;12.90;5.67;;;3.60;99.90;;;;;;5015620;28;20195;-92
2021/12/27 08:07:12;;;;;;;20.63;8.53;;;3.60;99.90;;;;;;5015544;28;20186;-92
2021/12/27 08:09:38;;;;;;;29.63;14.13;;;3.60;99.90;;;;;;5015365;28;20278;-92
2021/12/27 08:12:06;;;;;;;16.27;7.90;;;3.60;99.90;;;;;;5015084;28;20229;-91
2021/12/27 08:14:32;;;;;;;21.47;7.93;;;3.60;99.90;;;;;;5008762;28;20211;-91
2021/12/27 08:16:58;;;;;;;9.63;6.50;;;3.60;99.90;;;;;;5005278;28;20264;-91
2021/12/27 08:19:24;;;;;;;10.77;6.90;;;3.70;99.90;;;;;;5011266;28;20210;-91
2021/12/27 08:21:50;;;;;;;16.57;8.27;;;3.70;99.90;;;;;;5005510;28;20246;-92
2021/12/27 08:24:17;;;;;;;14.77;6.23;;;3.80;99.90;;;;;;5005689;28;20186;-91
2021/12/27 08:26:45;;;;;;;21.87;6.73;;;3.80;99.90;;;;;;5019314;28;20210;-92
2021/12/27 08:29:11;;;;;;;34.40;8.20;;;3.70;99.90;;;;;;5003801;28;20270;-91
2021/12/27 08:31:37;;;;;;;88.30;8.43;;;3.70;99.90;;;;;;5004700;28;20203;-92
2021/12/27 08:34:03;;;;;;;40.80;6.47;;;3.70;99.90;;;;;;5014132;28;20194;-91
2021/12/27 08:36:29;;;;;;;71.87;7.70;;;3.60;99.90;;;;;;5008599;28;20270;-91
2021/12/27 08:38:56;;;;;;;24.20;5.50;;;3.50;99.90;;;;;;5003245;28;20325;-91
2021/12/27 08:41:27;;;;;;;26.90;5.47;;;3.40;99.90;;;;;;5004612;28;20201;-92
2021/12/27 08:44:08;;;;;;;36.03;6.77;;;3.30;99.90;;;;;;5016437;28;20175;-91
2021/12/27 08:46:34;;;;;;;46.13;7.93;;;3.20;99.90;;;;;;5031754;28;20225;-91
2021/12/27 08:49:02;;;;;;;19.87;7.50;;;3.10;99.90;;;;;;5014925;28;20187;-91
2021/12/27 08:51:28;;;;;;;49.67;8.80;;;3.00;99.90;;;;;;5005579;28;20285;-92
2021/12/27 08:53:54;;;;;;;20.10;8.47;;;3.10;99.90;;;;;;5011454;28;20297;-92
2021/12/27 08:56:20;;;;;;;12.80;7.00;;;3.20;99.90;;;;;;5014394;28;20328;-91
2021/12/27 08:58:46;;;;;;;10.27;6.93;;;3.30;99.90;;;;;;5014603;28;20178;-92
2021/12/27 09:01:13;;;;;;;19.47;9.37;;;3.40;99.90;;;;;;5014232;28;20265;-92
2021/12/27 09:03:39;;;;;;;16.27;9.63;;;3.60;99.90;;;;;;5014550;28;20182;-92
2021/12/27 09:06:04;;;;;;;31.63;10.30;;;3.70;99.90;;;;;;5014373;28;20198;-92
2021/12/27 09:08:31;;;;;;;10.00;7.67;;;3.70;99.90;;;;;;5031187;28;20313;-92
2021/12/27 09:10:58;;;;;;;24.33;8.23;;;3.70;99.90;;;;;;5014607;28;20349;-92
2021/12/27 09:13:29;;;;;;;16.20;8.33;;;3.80;99.90;;;;;;5014307;28;20231;-92
2021/12/27 09:15:56;;;;;;;19.83;11.23;;;3.80;99.90;;;;;;5014458;28;20182;-92
2021/12/27 09:18:22;;;;;;;19.80;11.23;;;3.80;99.90;;;;;;5030826;28;20184;-92
2021/12/27 09:20:48;;;;;;;10.17;8.00;;;3.90;99.90;;;;;;5030586;28;20298;-91
2021/12/27 09:23:14;;;;;;;17.47;9.97;;;4.00;99.90;;;;;;5014266;28;20188;-92
2021/12/27 09:25:42;;;;;;;57.80;12.33;;;4.00;99.90;;;;;;5014161;28;20177;-92
2021/12/27 09:28:08;;;;;;;30.27;8.80;;;4.10;99.90;;;;;;5028137;28;20174;-91
2021/12/27 09:30:34;;;;;;;11.90;9.77;;;4.00;99.90;;;;;;5006597;28;20191;-92
2021/12/27 09:33:00;;;;;;;40.43;10.33;;;4.00;99.90;;;;;;4994844;28;20222;-92
2021/12/27 09:35:26;;;;;;;9.60;7.50;;;4.10;99.90;;;;;;5026214;28;20252;-92
2021/12/27 09:37:52;;;;;;;10.27;6.70;;;4.20;99.90;;;;;;5014748;28;20182;-91
2021/12/27 09:40:19;;;;;;;14.50;9.87;;;4.20;99.90;;;;;;5014554;28;20175;-92
2021/12/27 09:42:46;;;;;;;20.20;8.53;;;4.30;99.90;;;;;;5013491;28;20188;-91
2021/12/27 09:45:12;;;;;;;11.50;6.50;;;4.30;99.90;;;;;;5005032;28;20223;-91
2021/12/27 09:47:38;;;;;;;15.60;6.47;;;4.30;99.90;;;;;;5015221;28;20207;-91
2021/12/27 09:50:12;;;;;;;27.23;9.40;;;4.30;99.90;;;;;;4995596;28;20283;-91
2021/12/27 09:52:39;;;;;;;14.37;7.50;;;4.30;99.90;;;;;;4995213;28;20249;-92
2021/12/27 09:55:06;;;;;;;17.47;9.50;;;4.30;99.90;;;;;;4994972;28;20227;-91
2021/12/27 09:57:33;;;;;;;24.93;8.20;;;4.40;99.90;;;;;;4995250;28;20564;-92
2021/12/27 09:59:59;;;;;;;23.80;8.10;;;4.50;99.90;;;;;;4994808;28;20190;-92
2021/12/27 10:02:26;;;;;;;86.40;9.77;;;4.50;99.90;;;;;;5001313;28;20191;-91
2021/12/27 10:04:53;;;;;;;80.80;9.93;;;4.60;99.90;;;;;;5018676;28;20202;-91
2021/12/27 10:07:24;;;;;;;64.87;8.97;;;4.60;99.90;;;;;;5005359;28;20645;-92
2021/12/27 10:09:55;;;;;;;27.57;6.63;;;4.60;99.90;;;;;;5012511;28;20179;-91
2021/12/27 10:12:22;;;;;;;6.40;5.73;;;4.60;99.90;;;;;;4998833;28;20203;-91
2021/12/27 10:15:10;;;;;;;9.10;6.03;;;4.70;99.90;;;;;;4998921;28;20299;-91
2021/12/27 10:17:37;;;;;;;58.73;8.60;;;4.80;99.90;;;;;;5013983;28;20181;-91
2021/12/27 10:20:15;;;;;;;8.17;6.27;;;4.90;99.90;;;;;;5018998;28;20211;-91
2021/12/27 10:22:44;;;;;;;21.70;9.03;;;5.00;99.90;;;;;;5018699;28;20204;-91
2021/12/27 10:25:22;;;;;;;13.33;9.00;;;5.10;99.90;;;;;;5018523;28;20189;-91
2021/12/27 10:27:50;;;;;;;13.53;9.20;;;5.20;99.90;;;;;;5018838;28;20181;-92
2021/12/27 10:30:20;;;;;;;22.10;10.00;;;5.30;99.90;;;;;;5018371;28;20259;-92
2021/12/27 10:33:06;;;;;;;11.67;9.03;;;5.30;99.90;;;;;;5018970;28;20186;-91
2021/12/27 10:35:38;;;;;;;12.77;9.03;;;5.40;99.90;;;;;;5018657;28;20259;-92
2021/12/27 10:38:23;;;;;;;12.07;8.20;;;5.50;99.90;;;;;;5018359;28;20280;-92
2021/12/27 10:41:00;;;;;;;12.10;8.73;;;5.60;99.90;;;;;;5004632;28;20213;-92
2021/12/27 10:43:48;;;;;;;13.20;9.07;;;5.70;99.90;;;;;;4998234;28;20646;-92
2021/12/27 10:46:17;;;;;;;21.70;9.17;;;5.70;99.90;;;;;;5003544;28;20196;-92
2021/12/27 10:48:59;;;;;;;18.97;9.63;;;5.80;99.90;;;;;;5018186;28;20191;-92
2021/12/27 10:51:28;;;;;;;16.90;9.20;;;5.80;99.90;;;;;;5018184;28;20296;-92
2021/12/27 10:53:59;;;;;;;11.00;9.33;;;5.80;99.90;;;;;;5017855;28;20209;-92
2021/12/27 10:56:46;;;;;;;11.67;10.23;;;5.80;99.90;;;;;;5018245;28;20190;-92
2021/12/27 10:59:17;;;;;;;27.63;13.13;;;5.90;99.90;;;;;;5015319;28;20185;-91
2021/12/27 11:01:47;;;;;;;22.60;11.13;;;5.80;99.90;;;;;;5004350;28;20208;-92
2021/12/27 11:04:17;;;;;;;17.43;10.80;;;5.80;99.90;;;;;;5011897;28;20182;-92
2021/12/27 11:06:44;;;;;;;13.97;10.83;;;5.90;99.90;;;;;;5017999;28;20180;-92
2021/12/27 11:09:14;;;;;;;13.07;8.13;;;6.00;99.90;;;;;;5027714;28;20265;-91
2021/12/27 11:11:41;;;;;;;19.70;8.27;;;6.10;99.90;;;;;;4998228;28;20555;-92
2021/12/27 11:14:08;;;;;;;16.97;6.63;;;6.10;99.90;;;;;;4997134;28;20210;-92
2021/12/27 11:16:34;;;;;;;10.33;6.57;;;6.20;99.90;;;;;;4998284;28;20182;-91
2021/12/27 11:19:00;;;;;;;13.93;7.83;;;6.30;99.90;;;;;;4998490;28;20187;-91
2021/12/27 11:21:33;;;;;;;9.33;7.27;;;6.30;99.90;;;;;;4998306;28;20206;-91
2021/12/27 11:24:01;;;;;;;9.43;7.23;;;6.40;99.90;;;;;;4998370;28;20178;-91
2021/12/27 11:26:33;;;;;;;9.77;7.33;;;6.50;99.90;;;;;;5014409;28;20179;-91
2021/12/27 11:29:20;;;;;;;10.27;7.57;;;6.60;99.90;;;;;;4998151;28;20182;-92
2021/12/27 11:32:11;;;;;;;10.80;8.13;;;6.80;99.90;;;;;;4997529;28;20203;-92
2021/12/27 11:34:56;;;;;;;14.67;11.03;;;7.00;99.90;;;;;;4998273;28;20261;-92
2021/12/27 11:37:41;;;;;;;22.57;14.57;;;7.10;99.90;;;;;;4997712;28;20175;-91
2021/12/27 11:40:19;;;;;;;12.07;9.23;;;7.20;99.90;;;;;;4997934;28;20176;-92
2021/12/27 11:42:56;;;;;;;9.93;7.00;;;7.30;99.90;;;;;;5014488;28;20196;-92
2021/12/27 11:45:50;;;;;;;10.40;6.60;;;7.40;99.90;;;;;;4997922;28;20189;-92
2021/12/27 11:48:22;;;;;;;7.23;5.60;;;7.50;99.90;;;;;;4998162;28;20176;-91
2021/12/27 11:50:57;;;;;;;5.60;4.83;;;7.60;99.90;;;;;;4997848;28;20203;-91
2021/12/27 11:53:32;;;;;;;5.10;4.60;;;7.70;99.90;;;;;;4997604;28;20274;-91
2021/12/27 11:56:00;;;;;;;5.30;4.80;;;7.60;99.90;;;;;;4997586;28;20174;-92
2021/12/27 11:58:37;;;;;;;6.07;5.47;;;7.70;99.90;;;;;;4997480;28;20202;-92
2021/12/27 12:01:06;;;;;;;5.77;5.17;;;7.70;99.90;;;;;;5013904;28;20205;-91
2021/12/27 12:03:51;;;;;;;7.77;6.77;;;7.60;99.90;;;;;;4997254;28;20176;-92
2021/12/27 12:06:35;;;;;;;9.10;7.47;;;7.60;99.90;;;;;;4997077;28;20278;-91
2021/12/27 12:09:17;;;;;;;17.50;13.10;;;7.60;99.90;;;;;;4997281;28;20551;-91
2021/12/27 12:11:45;;;;;;;14.73;11.00;;;7.50;99.90;;;;;;4997382;28;20207;-91
2021/12/27 12:18:16;;;;;;;16.70;12.70;;;7.60;99.90;;;;;;5014657;28;20175;-91
2021/12/27 12:20:41;;;;;;;13.80;11.30;;;7.70;99.90;;;;;;4997244;28;20253;-92
2021/12/27 12:23:09;;;;;;;18.73;13.77;;;7.80;99.90;;;;;;4997380;28;20179;-92
2021/12/27 12:25:37;;;;;;;17.63;14.27;;;7.90;99.90;;;;;;4997295;28;20206;-91
2021/12/27 12:28:22;;;;;;;21.13;16.27;;;8.00;99.90;;;;;;4997482;28;20179;-91
2021/12/27 12:30:51;;;;;;;24.27;17.77;;;8.10;99.90;;;;;;4997173;28;20278;-92
2021/12/27 12:33:20;;;;;;;30.33;21.80;;;8.10;99.90;;;;;;4996785;28;20186;-91
2021/12/27 12:35:52;;;;;;;26.63;20.37;;;8.20;99.90;;;;;;4996503;28;20171;-92
2021/12/27 12:38:31;;;;;;;24.60;18.37;;;8.30;99.90;;;;;;4996677;28;20186;-92
2021/12/27 12:41:20;;;;;;;17.90;14.90;;;8.40;99.90;;;;;;4996624;28;20195;-91
2021/12/27 12:43:51;;;;;;;13.30;10.93;;;8.50;99.90;;;;;;4996775;28;20190;-91
2021/12/27 12:46:23;;;;;;;10.13;8.00;;;8.50;99.90;;;;;;4996628;28;20175;-92
2021/12/27 12:48:58;;;;;;;9.10;7.50;;;8.50;99.90;;;;;;4996900;28;20270;-91
2021/12/27 12:51:41;;;;;;;7.73;6.97;;;8.50;99.90;;;;;;4996820;28;20206;-91
2021/12/27 12:54:34;;;;;;;8.90;7.03;;;8.50;99.90;;;;;;4997122;28;20203;-91
2021/12/27 12:57:14;;;;;;;10.53;7.17;;;8.50;99.90;;;;;;4997176;28;20199;-92
2021/12/27 12:59:55;;;;;;;7.43;6.23;;;8.50;99.90;;;;;;5011137;28;20193;-94
2021/12/27 13:02:30;;;;;;;7.33;6.27;;;8.50;99.90;;;;;;5007162;28;20210;-91